Time;durP1;ratioP1;P1;durP2;ratioP2;P2;SDS_P1;SDS_P2;PMS_P1;PMS_P2;Temp;Humidity;BMP_temperature;BMP_pressure;BME280_temperature;BME280_humidity;BME280_pressure;Samples;Min_cycle;Max_cycle;Signal;HPM_P1;HPM_P2
2023/01/04 00:05:18;;;;;;;16.77;11.93;;;;;7.50;100237.00;;;;16573949;28;20229;-48
2023/01/04 00:13:21;;;;;;;12.60;11.30;;;;;7.30;100236.00;;;;16571535;28;20228;-49
2023/01/04 00:21:25;;;;;;;15.73;13.10;;;;;7.20;100223.00;;;;16587286;28;20225;-49
2023/01/04 00:29:29;;;;;;;13.57;12.20;;;;;7.10;100204.00;;;;16578472;28;20231;-48
2023/01/04 00:37:32;;;;;;;13.17;11.87;;;;;7.10;100192.00;;;;16584692;28;20585;-49
2023/01/04 00:45:35;;;;;;;11.33;10.00;;;;;7.20;100177.00;;;;16589696;28;20231;-50
2023/01/04 00:53:38;;;;;;;11.13;10.03;;;;;7.20;100166.00;;;;16586625;28;20812;-50
2023/01/04 01:01:42;;;;;;;11.00;10.00;;;;;7.00;100173.00;;;;16589152;28;20731;-48
2023/01/04 01:09:45;;;;;;;12.17;10.87;;;;;7.00;100154.00;;;;16586346;28;20730;-49
2023/01/04 01:17:48;;;;;;;13.10;11.80;;;;;7.10;100167.00;;;;16586809;28;20288;-49
2023/01/04 01:25:51;;;;;;;11.77;10.60;;;;;7.10;100172.00;;;;16583329;28;20768;-48
2023/01/04 01:33:56;;;;;;;11.20;10.10;;;;;7.10;100165.00;;;;16574995;28;20225;-48
2023/01/04 01:41:59;;;;;;;11.47;10.07;;;;;6.80;100172.00;;;;16578111;28;20212;-49
2023/01/04 01:50:04;;;;;;;14.90;13.50;;;;;6.30;100182.00;;;;16583424;28;20220;-49
2023/01/04 01:58:07;;;;;;;13.23;11.93;;;;;6.70;100180.00;;;;16580523;28;20224;-48
2023/01/04 02:06:12;;;;;;;14.37;12.87;;;;;6.80;100161.00;;;;16585282;28;20221;-49
2023/01/04 02:14:28;;;;;;;15.63;14.03;;;;;5.90;100162.00;;;;16577672;28;20225;-50
2023/01/04 02:22:51;;;;;;;15.17;13.00;;;;;6.10;100159.00;;;;16581077;28;20225;-49
2023/01/04 02:31:19;;;;;;;14.23;12.67;;;;;6.00;100153.00;;;;16577840;28;20234;-49
2023/01/04 02:39:30;;;;;;;12.97;11.57;;;;;6.00;100146.00;;;;16582819;28;20251;-48
2023/01/04 02:56:17;;;;;;;18.60;15.47;;;;;6.10;100126.00;;;;16507571;28;20225;-48
2023/01/04 03:12:57;;;;;;;15.80;14.20;;;;;5.90;100103.00;;;;16582637;28;20230;-49
2023/01/04 03:21:02;;;;;;;16.80;13.20;;;;;5.70;100091.00;;;;16579331;28;20238;-48
2023/01/04 03:37:41;;;;;;;13.83;12.43;;;;;5.50;100081.00;;;;16580964;28;20716;-49
2023/01/04 03:54:10;;;;;;;13.93;12.50;;;;;5.10;100088.00;;;;16577056;28;20218;-49
2023/01/04 04:02:17;;;;;;;16.27;12.87;;;;;5.00;100083.00;;;;16571542;28;20317;-48
2023/01/04 04:10:21;;;;;;;14.70;11.83;;;;;5.10;100084.00;;;;16572937;28;20225;-48
2023/01/04 04:18:23;;;;;;;13.03;11.53;;;;;5.40;100055.00;;;;16566461;28;20220;-49
2023/01/04 04:26:27;;;;;;;12.67;11.37;;;;;5.60;100059.00;;;;16569876;28;20665;-48
2023/01/04 04:34:29;;;;;;;13.93;12.07;;;;;5.60;100055.00;;;;16574281;28;20227;-49
2023/01/04 04:42:33;;;;;;;11.90;10.50;;;;;5.70;100036.00;;;;16579245;28;20211;-48
2023/01/04 04:50:36;;;;;;;11.23;10.13;;;;;5.90;100042.00;;;;16579546;28;20581;-49
2023/01/04 04:58:40;;;;;;;11.80;10.70;;;;;5.70;100023.00;;;;16578740;28;20224;-47
2023/01/04 05:06:43;;;;;;;12.73;10.10;;;;;5.60;100020.00;;;;16585054;28;20697;-47
2023/01/04 05:14:47;;;;;;;14.27;11.07;;;;;5.90;100020.00;;;;16585833;28;20232;-48
2023/01/04 05:22:49;;;;;;;10.87;9.67;;;;;5.80;100019.00;;;;16587468;28;20227;-48
2023/01/04 05:30:54;;;;;;;14.53;10.10;;;;;5.90;100023.00;;;;16588202;28;20244;-48
2023/01/04 05:38:56;;;;;;;12.20;11.00;;;;;6.00;100003.00;;;;16581699;28;20276;-49
2023/01/04 05:47:00;;;;;;;12.63;10.93;;;;;5.90;100000.00;;;;16585047;28;20279;-48
2023/01/04 05:55:03;;;;;;;10.67;9.63;;;;;6.10;100010.00;;;;16586138;28;20257;-49
2023/01/04 06:03:06;;;;;;;10.97;9.40;;;;;6.20;100014.00;;;;16583373;28;20236;-49
2023/01/04 06:11:09;;;;;;;9.80;8.80;;;;;6.40;100009.00;;;;16585435;28;20221;-49
2023/01/04 06:19:13;;;;;;;10.20;9.20;;;;;6.70;99989.00;;;;16583385;28;20264;-49
2023/01/04 06:27:15;;;;;;;10.13;9.10;;;;;6.70;99993.00;;;;16582097;28;20207;-48
2023/01/04 06:35:19;;;;;;;8.90;8.10;;;;;7.00;99977.00;;;;16582080;28;20234;-49
2023/01/04 06:43:21;;;;;;;8.30;7.50;;;;;7.20;99985.00;;;;16566269;28;20647;-50
2023/01/04 06:51:25;;;;;;;8.60;7.00;;;;;13.50;99931.00;;;;16579667;28;20297;-48
2023/01/04 06:59:27;;;;;;;6.80;6.23;;;;;12.00;99937.00;;;;16574092;28;20335;-49
2023/01/04 07:07:32;;;;;;;8.07;6.67;;;;;9.40;99952.00;;;;16553079;28;20261;-49
2023/01/04 07:15:35;;;;;;;7.10;6.43;;;;;9.20;99950.00;;;;16564923;28;20248;-47
2023/01/04 07:23:39;;;;;;;6.13;5.60;;;;;8.60;99953.00;;;;16570691;28;20222;-46
2023/01/04 07:31:42;;;;;;;7.37;6.67;;;;;8.90;99943.00;;;;16576510;28;20231;-48
2023/01/04 07:39:47;;;;;;;7.10;6.20;;;;;8.70;99950.00;;;;16569655;28;20306;-47
2023/01/04 07:47:49;;;;;;;6.77;6.10;;;;;8.50;99937.00;;;;16579933;28;20256;-46
2023/01/04 07:55:57;;;;;;;7.03;6.33;;;;;8.80;99931.00;;;;16576898;28;20909;-46
2023/01/04 08:03:59;;;;;;;8.23;6.90;;;;;9.30;99916.00;;;;16574052;28;20227;-46
2023/01/04 08:12:03;;;;;;;7.60;6.80;;;;;9.20;99913.00;;;;16567867;28;20587;-46
2023/01/04 08:20:07;;;;;;;7.73;6.93;;;;;8.90;99909.00;;;;16545699;28;20292;-46
2023/01/04 08:28:11;;;;;;;13.10;9.97;;;;;8.70;99903.00;;;;16545381;28;20206;-46
2023/01/04 08:36:17;;;;;;;16.50;14.60;;;;;8.60;99907.00;;;;16572374;28;20233;-47
2023/01/04 08:44:21;;;;;;;6.90;6.30;;;;;8.60;99895.00;;;;16590558;28;20223;-47
2023/01/04 08:52:24;;;;;;;6.73;6.07;;;;;8.60;99890.00;;;;16588691;28;20308;-47
2023/01/04 09:00:28;;;;;;;6.07;5.47;;;;;8.50;99867.00;;;;16569344;28;20233;-47
2023/01/04 09:08:32;;;;;;;5.90;5.30;;;;;8.60;99863.00;;;;16569971;28;20209;-47
2023/01/04 09:16:36;;;;;;;6.20;5.43;;;;;8.70;99853.00;;;;16586639;28;20227;-47
2023/01/04 09:24:38;;;;;;;6.90;4.83;;;;;9.00;99856.00;;;;16587621;28;20219;-47
2023/01/04 09:32:42;;;;;;;4.83;4.33;;;;;8.90;99856.00;;;;16586607;28;20214;-47
2023/01/04 09:40:52;;;;;;;6.40;5.20;;;;;9.50;99861.00;;;;16574458;28;20599;-47
2023/01/04 09:49:04;;;;;;;6.50;4.73;;;;;9.60;99859.00;;;;16582562;28;20415;-47
2023/01/04 09:57:10;;;;;;;4.70;4.20;;;;;9.90;99852.00;;;;16583192;28;20223;-47
2023/01/04 10:05:19;;;;;;;2.40;1.77;;;;;10.30;99859.00;;;;16580598;28;20227;-47
2023/01/04 10:13:44;;;;;;;3.20;2.83;;;;;10.50;99825.00;;;;16544602;28;20227;-47
2023/01/04 10:21:51;;;;;;;3.63;3.23;;;;;10.70;99810.00;;;;16547146;28;20286;-48
2023/01/04 10:30:00;;;;;;;4.50;3.50;;;;;10.90;99793.00;;;;16553531;28;20219;-47
2023/01/04 10:38:13;;;;;;;1.77;1.53;;;;;11.20;99781.00;;;;16563190;28;20227;-47
2023/01/04 10:46:20;;;;;;;1.07;0.90;;;;;11.50;99765.00;;;;16555724;28;20192;-47
2023/01/04 10:54:28;;;;;;;1.37;0.90;;;;;11.70;99760.00;;;;16536914;28;20318;-49
2023/01/04 11:02:35;;;;;;;3.23;1.00;;;;;12.20;99761.00;;;;16544377;28;20240;-47
2023/01/04 11:10:42;;;;;;;2.33;1.00;;;;;12.20;99743.00;;;;16559214;28;20225;-48
2023/01/04 11:18:45;;;;;;;2.10;1.37;;;;;12.40;99752.00;;;;16577790;28;20227;-48
2023/01/04 11:26:49;;;;;;;1.23;1.10;;;;;12.30;99734.00;;;;16579802;28;20201;-48
2023/01/04 11:34:53;;;;;;;1.30;1.20;;;;;12.70;99707.00;;;;16578711;28;20219;-48
2023/01/04 11:43:15;;;;;;;2.23;1.20;;;;;12.70;99709.00;;;;16577278;28;20239;-48
2023/01/04 11:51:21;;;;;;;0.90;0.90;;;;;12.40;99709.00;;;;16574729;28;20230;-48
2023/01/04 11:59:24;;;;;;;2.07;1.10;;;;;12.70;99713.00;;;;16579408;28;20360;-48
2023/01/04 12:07:30;;;;;;;2.17;1.13;;;;;12.90;99719.00;;;;16577902;28;20209;-48
2023/01/04 12:15:39;;;;;;;1.60;1.10;;;;;13.00;99702.00;;;;16579837;28;20234;-48
2023/01/04 12:23:42;;;;;;;2.23;1.07;;;;;12.90;99706.00;;;;16560659;28;20215;-48
2023/01/04 12:31:46;;;;;;;2.47;1.77;;;;;12.90;99691.00;;;;16566113;28;20217;-49
2023/01/04 12:39:48;;;;;;;1.97;1.10;;;;;13.10;99693.00;;;;16562161;28;20241;-48
2023/01/04 12:56:15;;;;;;;1.37;1.20;;;;;13.20;99676.00;;;;16560023;28;20223;-48
2023/01/04 13:04:30;;;;;;;2.93;1.50;;;;;13.10;99668.00;;;;16588450;28;20234;-48
2023/01/04 13:13:02;;;;;;;3.43;2.70;;;;;13.20;99650.00;;;;16588436;28;20215;-48
2023/01/04 13:21:12;;;;;;;1.90;1.50;;;;;13.30;99627.00;;;;16586981;28;20246;-48
2023/01/04 13:29:17;;;;;;;1.70;1.60;;;;;13.50;99622.00;;;;16587281;28;20400;-48
2023/01/04 13:37:36;;;;;;;2.17;1.73;;;;;13.60;99624.00;;;;16588280;28;20229;-48
2023/01/04 13:45:51;;;;;;;2.00;1.80;;;;;13.80;99611.00;;;;16548385;28;20242;-48
2023/01/04 13:53:56;;;;;;;2.40;1.60;;;;;13.90;99602.00;;;;16533248;28;20228;-48
2023/01/04 14:01:58;;;;;;;2.17;1.10;;;;;13.90;99593.00;;;;16531747;28;20811;-48
2023/01/04 14:10:02;;;;;;;0.80;0.80;;;;;13.80;99588.00;;;;16546218;28;20245;-48
2023/01/04 14:18:05;;;;;;;6.30;3.60;;;;;13.90;99600.00;;;;16537012;28;20231;-48
2023/01/04 14:26:09;;;;;;;2.20;1.20;;;;;13.80;99602.00;;;;16538149;28;20226;-48
2023/01/04 14:34:14;;;;;;;2.90;2.47;;;;;13.90;99594.00;;;;16551452;28;20303;-48
2023/01/04 14:42:27;;;;;;;0.70;0.70;;;;;14.00;99590.00;;;;16540996;28;20366;-48
2023/01/04 14:50:30;;;;;;;4.53;1.67;;;;;13.90;99591.00;;;;16560035;28;20223;-47
2023/01/04 14:58:33;;;;;;;1.47;0.90;;;;;14.00;99579.00;;;;16578389;28;20236;-47
2023/01/04 15:06:36;;;;;;;1.77;0.77;;;;;14.00;99588.00;;;;16570315;28;20199;-48
2023/01/04 15:14:40;;;;;;;1.10;1.00;;;;;13.80;99570.00;;;;16571749;28;20625;-48
2023/01/04 15:22:42;;;;;;;1.27;0.77;;;;;13.70;99576.00;;;;16581019;28;20628;-49
2023/01/04 15:30:46;;;;;;;0.63;0.63;;;;;13.70;99554.00;;;;16579496;28;20312;-49
2023/01/04 15:38:49;;;;;;;3.10;2.47;;;;;13.70;99548.00;;;;16559060;28;20225;-49
2023/01/04 15:46:53;;;;;;;0.87;0.77;;;;;13.60;99531.00;;;;16545053;28;20209;-49
2023/01/04 15:54:55;;;;;;;2.17;0.90;;;;;13.60;99515.00;;;;16547677;28;20233;-48
2023/01/04 16:02:59;;;;;;;1.23;1.13;;;;;13.50;99512.00;;;;16554239;28;20234;-49
2023/01/04 16:11:10;;;;;;;0.80;0.80;;;;;13.60;99516.00;;;;16507745;23;20269;-72
2023/01/04 16:19:14;;;;;;;2.00;1.13;;;;;13.70;99509.00;;;;16438659;28;20234;-69
2023/01/04 16:27:16;;;;;;;3.57;1.20;;;;;13.70;99501.00;;;;16435023;28;20602;-69
2023/01/04 16:35:20;;;;;;;1.03;1.00;;;;;13.80;99511.00;;;;16438912;28;20207;-71
2023/01/04 16:43:22;;;;;;;0.73;0.73;;;;;13.70;99496.00;;;;16435234;28;20391;-69
2023/01/04 16:51:27;;;;;;;1.03;0.90;;;;;13.90;99477.00;;;;16450041;28;20220;-70
2023/01/04 16:59:30;;;;;;;3.00;1.20;;;;;13.80;99457.00;;;;16451331;28;20232;-72
2023/01/04 17:07:34;;;;;;;0.83;0.80;;;;;13.90;99479.00;;;;16458845;28;20216;-71
2023/01/04 17:15:36;;;;;;;0.70;0.70;;;;;14.00;99474.00;;;;16460329;28;20220;-71
2023/01/04 17:23:42;;;;;;;1.40;1.10;;;;;14.00;99468.00;;;;16453477;28;20310;-73
2023/01/04 17:31:45;;;;;;;1.20;1.00;;;;;14.00;99464.00;;;;16457560;28;20761;-72
2023/01/04 17:39:53;;;;;;;2.00;1.40;;;;;14.00;99446.00;;;;16457827;28;20464;-72
2023/01/04 17:47:55;;;;;;;1.20;0.97;;;;;14.20;99453.00;;;;16456370;28;20719;-70
2023/01/04 17:56:03;;;;;;;1.83;1.20;;;;;13.90;99435.00;;;;16444725;28;20234;-70
2023/01/04 18:04:05;;;;;;;1.00;0.93;;;;;14.00;99436.00;;;;16453272;28;20231;-71
2023/01/04 18:12:09;;;;;;;3.20;2.27;;;;;13.90;99440.00;;;;16440978;28;20306;-71
2023/01/04 18:20:12;;;;;;;2.03;1.83;;;;;14.00;99438.00;;;;16441860;28;20235;-71
2023/01/04 18:28:16;;;;;;;2.00;1.80;;;;;13.90;99425.00;;;;16435709;28;20630;-73
2023/01/04 18:36:19;;;;;;;2.40;1.50;;;;;13.70;99429.00;;;;16438612;28;20267;-70
2023/01/04 18:44:22;;;;;;;1.60;1.30;;;;;13.80;99431.00;;;;16437780;28;20231;-71
2023/01/04 18:52:25;;;;;;;1.30;1.20;;;;;13.80;99438.00;;;;16440683;28;20371;-72
2023/01/04 19:00:29;;;;;;;2.47;0.87;;;;;13.60;99443.00;;;;16432776;28;20315;-73
2023/01/04 19:08:31;;;;;;;1.27;1.17;;;;;13.80;99451.00;;;;16414598;28;20225;-71
2023/01/04 19:16:35;;;;;;;3.80;2.70;;;;;13.80;99445.00;;;;16434303;23;20255;-48
2023/01/04 19:24:38;;;;;;;1.60;1.10;;;;;13.80;99443.00;;;;16484743;28;20222;-49
2023/01/04 19:32:41;;;;;;;0.73;0.73;;;;;13.90;99462.00;;;;16498470;28;20261;-50
2023/01/04 19:40:44;;;;;;;1.43;0.63;;;;;14.00;99451.00;;;;16472904;28;20286;-47
2023/01/04 19:48:48;;;;;;;1.47;0.90;;;;;13.90;99479.00;;;;16492149;28;20223;-47
2023/01/04 19:56:51;;;;;;;0.80;0.80;;;;;13.90;99489.00;;;;16511570;28;20739;-49
2023/01/04 20:04:54;;;;;;;9.50;5.87;;;;;14.00;99491.00;;;;16497849;28;20234;-48
2023/01/04 20:12:57;;;;;;;6.30;4.30;;;;;13.90;99488.00;;;;16491316;28;20256;-49
2023/01/04 20:21:01;;;;;;;1.10;1.00;;;;;13.70;99510.00;;;;16513103;28;20620;-49
2023/01/04 20:29:04;;;;;;;1.93;1.30;;;;;13.60;99517.00;;;;16512756;28;20232;-49
2023/01/04 20:37:07;;;;;;;0.70;0.60;;;;;13.60;99512.00;;;;16517524;28;20326;-50
2023/01/04 20:45:10;;;;;;;1.50;1.20;;;;;13.60;99507.00;;;;16516977;28;20629;-50
2023/01/04 20:53:14;;;;;;;1.10;1.00;;;;;13.70;99508.00;;;;16521591;28;20227;-49
2023/01/04 21:01:18;;;;;;;1.37;0.97;;;;;13.50;99492.00;;;;16502958;28;20234;-49
2023/01/04 21:09:22;;;;;;;1.00;1.00;;;;;13.70;99507.00;;;;16522914;28;20591;-50
2023/01/04 21:17:24;;;;;;;0.90;0.80;;;;;13.70;99506.00;;;;16522746;28;20732;-50
2023/01/04 21:25:28;;;;;;;1.30;1.20;;;;;13.70;99498.00;;;;16523242;28;20328;-50
2023/01/04 21:33:30;;;;;;;1.17;0.60;;;;;13.60;99501.00;;;;16516626;28;20319;-49
2023/01/04 21:41:34;;;;;;;1.70;0.90;;;;;13.80;99501.00;;;;16495114;28;20281;-49
2023/01/04 21:49:42;;;;;;;1.20;1.10;;;;;13.60;99470.00;;;;16512908;28;20220;-49
2023/01/04 21:57:46;;;;;;;1.20;1.00;;;;;13.60;99458.00;;;;16494401;28;20224;-49
2023/01/04 22:05:48;;;;;;;3.70;1.27;;;;;13.50;99453.00;;;;16496176;28;20347;-49
2023/01/04 22:13:52;;;;;;;0.73;0.73;;;;;13.60;99440.00;;;;16518374;28;20215;-49
2023/01/04 22:21:54;;;;;;;1.30;0.77;;;;;13.50;99438.00;;;;16520977;28;20243;-49
2023/01/04 22:29:58;;;;;;;4.63;3.07;;;;;13.60;99419.00;;;;16519284;28;20222;-49
2023/01/04 22:38:01;;;;;;;1.77;1.30;;;;;13.50;99407.00;;;;16520035;28;20233;-49
2023/01/04 22:46:07;;;;;;;6.07;3.50;;;;;13.60;99408.00;;;;16391299;23;20233;-49
2023/01/04 22:54:10;;;;;;;0.80;0.80;;;;;13.60;99424.00;;;;16344099;28;20254;-50
2023/01/04 23:02:13;;;;;;;0.70;0.70;;;;;13.60;99392.00;;;;16340055;29;20233;-49
2023/01/04 23:10:16;;;;;;;0.90;0.73;;;;;13.60;99379.00;;;;16342280;28;20228;-49
2023/01/04 23:18:20;;;;;;;0.80;0.80;;;;;13.60;99365.00;;;;16343924;29;20234;-49
2023/01/04 23:26:24;;;;;;;5.40;3.90;;;;;13.70;99369.00;;;;16343864;28;20311;-49
2023/01/04 23:34:29;;;;;;;0.90;0.90;;;;;13.60;99373.00;;;;16350882;28;20227;-49
2023/01/04 23:42:31;;;;;;;1.37;1.13;;;;;13.70;99373.00;;;;16338536;28;20225;-49
2023/01/04 23:50:35;;;;;;;0.77;0.77;;;;;13.80;99367.00;;;;16329660;28;20231;-48
2023/01/04 23:58:37;;;;;;;0.73;0.40;;;;;13.90;99343.00;;;;16335901;29;20224;-49
